createdAt,value
2019-02-12T00:01:58.061Z,18.37
2019-02-12T00:04:30.316Z,18.37
2019-02-12T00:07:02.399Z,18.36
2019-02-12T00:09:34.705Z,18.37
2019-02-12T00:12:06.900Z,18.36
2019-02-12T00:14:39.224Z,18.35
2019-02-12T00:17:11.465Z,18.36
2019-02-12T00:19:43.732Z,18.37
2019-02-12T00:22:15.914Z,18.36
2019-02-12T00:24:48.101Z,18.36
2019-02-12T00:27:21.176Z,18.35
2019-02-12T00:29:53.858Z,18.36
2019-02-12T00:32:26.174Z,18.35
2019-02-12T00:34:58.311Z,18.35
2019-02-12T00:37:30.428Z,18.34
2019-02-12T00:40:02.621Z,18.35
2019-02-12T00:42:35.892Z,18.34
2019-02-12T00:45:08.265Z,18.36
2019-02-12T00:47:40.334Z,18.34
2019-02-12T00:50:12.661Z,18.35
2019-02-12T00:52:44.837Z,18.35
2019-02-12T00:55:16.951Z,18.35
2019-02-12T00:57:49.048Z,18.33
2019-02-12T01:00:21.236Z,18.34
2019-02-12T01:02:54.403Z,18.33
2019-02-12T01:05:26.534Z,18.32
2019-02-12T01:07:58.673Z,18.33
2019-02-12T01:10:31.178Z,18.33
2019-02-12T01:13:03.354Z,18.33
2019-02-12T01:15:35.524Z,18.29
2019-02-12T01:18:07.879Z,18.31
2019-02-12T01:20:40.027Z,18.30
2019-02-12T01:23:12.202Z,18.32
2019-02-12T01:25:44.412Z,18.30
2019-02-12T01:28:16.717Z,18.31
2019-02-12T01:30:48.823Z,18.31
2019-02-12T01:33:21.158Z,18.31
2019-02-12T01:35:53.450Z,18.31
2019-02-12T01:38:25.630Z,18.32
2019-02-12T01:40:57.905Z,18.33
2019-02-12T01:43:30.283Z,18.36
2019-02-12T01:46:02.279Z,18.31
2019-02-12T01:48:34.654Z,18.34
2019-02-12T01:51:06.736Z,18.35
2019-02-12T01:53:38.945Z,18.36
2019-02-12T01:56:11.029Z,18.37
2019-02-12T01:58:43.270Z,18.33
2019-02-12T02:01:15.415Z,18.34
2019-02-12T02:03:47.795Z,18.32
2019-02-12T02:06:20.513Z,18.30
2019-02-12T02:08:52.988Z,18.29
2019-02-12T02:11:25.049Z,18.31
2019-02-12T02:13:57.434Z,18.31
2019-02-12T02:16:29.502Z,18.28
2019-02-12T02:19:01.618Z,18.29
2019-02-12T02:21:34.045Z,18.29
2019-02-12T02:24:06.115Z,18.26
2019-02-12T02:26:38.419Z,18.26
2019-02-12T02:29:10.867Z,18.28
2019-02-12T02:31:43.240Z,18.28
2019-02-12T02:34:15.568Z,18.27
2019-02-12T02:36:48.431Z,18.29
2019-02-12T02:39:20.614Z,18.24
2019-02-12T02:41:52.812Z,18.28
2019-02-12T02:44:25.000Z,18.28
2019-02-12T02:46:57.214Z,18.29
2019-02-12T02:49:29.461Z,18.29
2019-02-12T02:52:01.650Z,18.26
2019-02-12T02:54:33.924Z,18.25
2019-02-12T02:57:06.071Z,18.24
2019-02-12T02:59:38.484Z,18.25
2019-02-12T03:02:10.614Z,18.24
2019-02-12T03:04:43.020Z,18.26
2019-02-12T03:07:15.258Z,18.22
2019-02-12T03:09:47.589Z,18.21
2019-02-12T03:12:19.832Z,18.20
2019-02-12T03:14:52.044Z,18.18
2019-02-12T03:17:25.569Z,18.19
2019-02-12T03:19:57.792Z,18.19
2019-02-12T03:22:30.050Z,18.19
2019-02-12T03:25:02.550Z,18.19
2019-02-12T03:27:34.637Z,18.18
2019-02-12T03:30:07.636Z,18.20
2019-02-12T03:32:40.931Z,18.20
2019-02-12T03:35:13.300Z,18.18
2019-02-12T03:37:45.573Z,18.18
2019-02-12T03:40:17.704Z,18.19
2019-02-12T03:42:49.873Z,18.20
2019-02-12T03:45:22.260Z,18.19
2019-02-12T03:47:54.470Z,18.18
2019-02-12T03:50:26.732Z,18.18
2019-02-12T03:52:58.963Z,18.22
2019-02-12T03:55:31.291Z,18.20
2019-02-12T03:58:03.541Z,18.19
2019-02-12T04:00:35.786Z,18.17
2019-02-12T04:03:11.169Z,18.16
2019-02-12T04:05:43.535Z,18.16
2019-02-12T04:08:26.070Z,18.15
2019-02-12T04:10:58.368Z,18.15
2019-02-12T04:13:30.552Z,18.15
2019-02-12T04:16:02.832Z,18.13
2019-02-12T04:18:37.750Z,18.13
2019-02-12T04:21:10.032Z,18.13
2019-02-12T04:23:45.115Z,18.13
2019-02-12T04:26:17.359Z,18.11
2019-02-12T04:28:49.618Z,18.09
2019-02-12T04:31:22.074Z,18.11
2019-02-12T04:33:54.312Z,18.12
2019-02-12T04:36:26.491Z,18.13
2019-02-12T04:38:58.852Z,18.14
2019-02-12T04:41:30.980Z,18.11
2019-02-12T04:44:03.339Z,18.07
2019-02-12T04:46:35.591Z,18.08
2019-02-12T04:49:07.722Z,18.08
2019-02-12T04:51:39.884Z,18.08
2019-02-12T04:54:13.207Z,18.07
2019-02-12T04:56:45.453Z,18.06
2019-02-12T04:59:17.827Z,18.06
2019-02-12T05:01:49.996Z,18.08
2019-02-12T05:04:22.527Z,18.14
2019-02-12T05:06:54.772Z,18.11
2019-02-12T05:09:27.105Z,18.08
2019-02-12T05:12:03.114Z,18.07
2019-02-12T05:14:35.272Z,18.08
2019-02-12T05:17:07.826Z,18.08
2019-02-12T05:19:40.075Z,18.07
2019-02-12T05:22:12.294Z,18.15
2019-02-12T05:24:44.516Z,18.09
2019-02-12T05:27:16.789Z,18.36
2019-02-12T05:29:49.174Z,18.40
2019-02-12T05:32:21.348Z,18.21
2019-02-12T05:34:55.951Z,18.12
2019-02-12T05:37:29.984Z,18.13
2019-02-12T05:40:06.203Z,18.12
2019-02-12T05:42:38.641Z,18.13
2019-02-12T05:45:11.230Z,18.10
2019-02-12T05:47:43.465Z,18.08
2019-02-12T05:50:15.874Z,18.11
2019-02-12T05:52:54.474Z,18.11
2019-02-12T05:55:21.893Z,18.09
2019-02-12T05:57:54.157Z,18.09
2019-02-12T06:00:31.098Z,18.09
2019-02-12T06:03:03.428Z,18.09
2019-02-12T06:05:35.957Z,18.10
2019-02-12T06:08:08.449Z,18.07
2019-02-12T06:10:40.703Z,18.06
2019-02-12T06:13:12.873Z,18.05
2019-02-12T06:15:45.256Z,18.05
2019-02-12T06:18:18.382Z,18.07
2019-02-12T06:20:52.539Z,18.08
2019-02-12T06:23:24.739Z,18.09
2019-02-12T06:25:57.188Z,18.08
2019-02-12T06:28:31.008Z,18.08
2019-02-12T06:31:03.414Z,18.07
2019-02-12T06:33:35.649Z,18.05
2019-02-12T06:36:07.867Z,18.07
2019-02-12T06:38:40.139Z,18.06
2019-02-12T06:41:13.412Z,18.05
2019-02-12T06:43:46.650Z,18.02
2019-02-12T06:46:19.112Z,18.05
2019-02-12T06:48:51.292Z,18.04
2019-02-12T06:51:23.472Z,18.05
2019-02-12T06:53:55.599Z,18.03
2019-02-12T06:56:27.773Z,18.03
2019-02-12T06:59:00.087Z,18.01
2019-02-12T07:01:32.327Z,18.01
2019-02-12T07:04:06.021Z,18.03
2019-02-12T07:06:47.728Z,18.02
2019-02-12T07:09:30.691Z,18.02
2019-02-12T07:12:24.229Z,18.02
2019-02-12T07:14:58.235Z,18.02
2019-02-12T07:17:52.021Z,18.02
2019-02-12T07:20:34.078Z,18.03
2019-02-12T07:23:21.386Z,18.03
2019-02-12T07:26:11.590Z,18.03
2019-02-12T07:29:11.374Z,18.03
2019-02-12T07:32:02.071Z,18.02
2019-02-12T07:34:40.385Z,18.02
2019-02-12T07:37:37.374Z,18.03
2019-02-12T07:40:31.219Z,18.03
2019-02-12T07:43:40.354Z,18.03
2019-02-12T07:46:41.288Z,18.05
2019-02-12T07:49:34.635Z,18.04
2019-02-12T07:52:18.878Z,18.05
2019-02-12T07:55:03.067Z,18.05
2019-02-12T07:58:02.986Z,18.05
2019-02-12T08:00:46.686Z,18.04
2019-02-12T08:03:33.400Z,18.04
2019-02-12T08:06:19.924Z,18.05
2019-02-12T08:09:11.518Z,18.04
2019-02-12T08:11:55.671Z,18.05
2019-02-12T08:14:58.358Z,18.06
2019-02-12T08:17:47.289Z,18.06
2019-02-12T08:20:41.974Z,18.05
2019-02-12T08:23:40.892Z,18.05
2019-02-12T08:26:30.383Z,18.06
2019-02-12T08:29:07.147Z,18.09
2019-02-12T08:31:57.923Z,18.07
2019-02-12T08:34:47.429Z,18.04
2019-02-12T08:37:36.650Z,18.04
2019-02-12T08:40:22.649Z,18.04
2019-02-12T08:43:01.087Z,18.04
2019-02-12T08:45:47.386Z,18.04
2019-02-12T08:48:36.743Z,18.02
2019-02-12T08:55:22.746Z,18.03
2019-02-12T08:58:31.701Z,18.03
2019-02-12T09:01:09.869Z,18.04
2019-02-12T09:04:12.655Z,18.04
2019-02-12T09:07:06.587Z,18.04
2019-02-12T09:09:56.521Z,18.05
2019-02-12T09:12:46.579Z,18.05
2019-02-12T09:15:37.320Z,18.05
2019-02-12T09:18:27.227Z,18.05
2019-02-12T09:21:13.308Z,18.06
2019-02-12T09:24:19.575Z,18.05
2019-02-12T09:27:14.226Z,18.05
2019-02-12T09:30:13.867Z,18.07
2019-02-12T09:32:58.914Z,18.05
2019-02-12T09:35:41.445Z,18.06
2019-02-12T09:38:36.083Z,18.06
2019-02-12T09:41:19.075Z,18.07
2019-02-12T09:44:03.739Z,18.08
2019-02-12T09:46:55.404Z,18.08
2019-02-12T09:49:42.417Z,18.11
2019-02-12T09:52:37.345Z,18.11
2019-02-12T09:55:34.137Z,18.15
2019-02-12T09:58:12.919Z,18.14
2019-02-12T10:00:48.295Z,18.12
2019-02-12T10:03:42.129Z,18.13
2019-02-12T10:06:45.177Z,18.13
2019-02-12T10:09:34.508Z,18.15
2019-02-12T10:12:12.987Z,18.14
2019-02-12T10:15:04.741Z,18.14
2019-02-12T10:17:49.152Z,18.15
2019-02-12T10:20:25.098Z,18.17
2019-02-12T10:23:22.443Z,18.18
2019-02-12T10:25:57.806Z,18.18
2019-02-12T10:28:48.825Z,18.19
2019-02-12T10:31:25.332Z,18.19
2019-02-12T10:33:57.646Z,18.20
2019-02-12T10:36:29.865Z,18.21
2019-02-12T10:39:02.334Z,18.20
2019-02-12T10:41:35.631Z,18.21
2019-02-12T10:44:09.101Z,18.21
2019-02-12T10:46:41.438Z,18.22
2019-02-12T10:49:13.635Z,18.22
2019-02-12T10:51:45.824Z,18.23
2019-02-12T10:54:17.991Z,18.24
2019-02-12T10:56:50.189Z,18.24
2019-02-12T10:59:22.406Z,18.25
2019-02-12T11:01:55.174Z,18.25
2019-02-12T11:04:27.406Z,18.26
2019-02-12T11:07:05.082Z,18.27
2019-02-12T11:09:37.837Z,18.27
2019-02-12T11:12:10.094Z,18.28
2019-02-12T11:14:42.487Z,18.29
2019-02-12T11:17:14.862Z,18.30
2019-02-12T11:19:46.953Z,18.30
2019-02-12T11:22:19.192Z,18.31
2019-02-12T11:24:51.440Z,18.31
2019-02-12T11:27:23.723Z,18.32
2019-02-12T11:29:55.898Z,18.33
2019-02-12T11:32:29.043Z,18.34
2019-02-12T11:35:01.318Z,18.34
2019-02-12T11:37:33.679Z,18.34
2019-02-12T11:40:05.878Z,18.35
2019-02-12T11:42:38.175Z,18.34
2019-02-12T11:45:10.907Z,18.36
2019-02-12T11:47:42.877Z,18.35
2019-02-12T11:50:15.032Z,18.36
2019-02-12T11:52:47.000Z,18.38
2019-02-12T11:55:19.209Z,18.38
2019-02-12T11:57:51.573Z,18.38
2019-02-12T12:00:28.632Z,18.39
2019-02-12T12:03:00.760Z,18.39
2019-02-12T12:05:32.977Z,18.40
2019-02-12T12:08:05.147Z,18.40
2019-02-12T12:10:37.373Z,18.41
2019-02-12T12:13:09.667Z,18.42
2019-02-12T12:15:41.736Z,18.41
2019-02-12T12:18:14.083Z,18.43
2019-02-12T12:20:46.232Z,18.43
2019-02-12T12:23:18.651Z,18.43
2019-02-12T12:25:50.927Z,18.44
2019-02-12T12:28:23.128Z,18.44
2019-02-12T12:30:55.363Z,18.46
2019-02-12T12:33:27.717Z,18.45
2019-02-12T12:35:59.995Z,18.46
2019-02-12T12:38:32.174Z,18.47
2019-02-12T12:41:04.674Z,18.47
2019-02-12T12:43:36.904Z,18.49
2019-02-12T12:46:09.218Z,18.49
2019-02-12T12:48:41.458Z,18.49
2019-02-12T12:51:14.053Z,18.50
2019-02-12T12:53:47.256Z,18.52
2019-02-12T12:56:19.748Z,18.52
2019-02-12T12:58:53.985Z,18.53
2019-02-12T13:01:26.441Z,18.53
2019-02-12T13:03:58.626Z,18.53
2019-02-12T13:06:42.758Z,18.60
2019-02-12T13:09:16.025Z,18.58
2019-02-12T13:11:48.373Z,18.55
2019-02-12T13:14:20.625Z,18.57
2019-02-12T13:16:53.011Z,18.57
2019-02-12T13:19:25.415Z,18.62
2019-02-12T13:21:57.748Z,18.63
2019-02-12T13:24:31.018Z,18.62
2019-02-12T13:27:03.226Z,18.63
2019-02-12T13:29:36.072Z,18.64
2019-02-12T13:32:08.417Z,18.65
2019-02-12T13:34:40.557Z,18.65
2019-02-12T13:37:13.069Z,18.65
2019-02-12T13:39:45.394Z,18.66
2019-02-12T13:42:17.518Z,18.69
2019-02-12T13:44:49.690Z,18.75
2019-02-12T13:47:21.789Z,18.77
2019-02-12T13:49:53.857Z,18.76
2019-02-12T13:52:25.806Z,18.73
2019-02-12T13:54:57.978Z,18.72
2019-02-12T13:57:30.174Z,18.70
2019-02-12T14:00:02.336Z,18.69
2019-02-12T14:02:35.837Z,18.70
2019-02-12T14:05:10.191Z,18.69
2019-02-12T14:07:45.518Z,18.70
2019-02-12T14:10:20.439Z,18.74
2019-02-12T14:12:52.712Z,18.74
2019-02-12T14:15:30.342Z,18.75
2019-02-12T14:18:02.842Z,18.75
2019-02-12T14:20:34.912Z,18.76
2019-02-12T14:23:07.084Z,18.78
2019-02-12T14:25:39.233Z,18.76
2019-02-12T14:28:11.968Z,18.76
2019-02-12T14:30:44.131Z,18.75
2019-02-12T14:33:16.648Z,18.75
2019-02-12T14:35:48.939Z,18.74
2019-02-12T14:38:21.286Z,18.76
2019-02-12T14:40:53.545Z,18.76
2019-02-12T14:43:25.862Z,18.77
2019-02-12T14:45:57.984Z,18.77
2019-02-12T14:48:30.331Z,18.77
2019-02-12T14:51:02.501Z,18.81
2019-02-12T14:53:34.924Z,18.86
2019-02-12T14:56:11.260Z,18.84
2019-02-12T14:58:40.829Z,18.83
2019-02-12T15:01:13.140Z,18.85
2019-02-12T15:03:45.703Z,18.83
2019-02-12T15:06:17.795Z,18.86
2019-02-12T15:08:51.232Z,18.87
2019-02-12T15:11:23.474Z,18.86
2019-02-12T15:13:55.958Z,18.85
2019-02-12T15:16:28.162Z,18.85
2019-02-12T15:19:00.599Z,18.85
2019-02-12T15:21:33.070Z,18.86
2019-02-12T15:24:05.274Z,18.86
2019-02-12T15:26:37.400Z,18.86
2019-02-12T15:29:09.768Z,18.86
2019-02-12T15:31:43.059Z,18.87
2019-02-12T15:34:15.352Z,18.88
2019-02-12T15:36:47.304Z,18.88
2019-02-12T15:39:20.474Z,18.88
2019-02-12T15:41:52.597Z,18.88
2019-02-12T15:44:24.860Z,18.89
2019-02-12T15:46:57.301Z,18.88
2019-02-12T15:49:29.509Z,18.88
2019-02-12T15:52:01.765Z,18.88
2019-02-12T15:54:33.892Z,18.89
2019-02-12T15:57:06.298Z,18.90
2019-02-12T15:59:38.366Z,18.88
2019-02-12T16:02:11.717Z,18.88
2019-02-12T16:04:48.283Z,18.88
2019-02-12T16:07:22.361Z,18.89
2019-02-12T16:09:56.563Z,18.88
2019-02-12T16:12:28.711Z,18.89
2019-02-12T16:15:01.509Z,18.90
2019-02-12T16:17:35.443Z,18.89
2019-02-12T16:20:10.029Z,18.90
2019-02-12T16:22:43.157Z,18.89
2019-02-12T16:25:15.600Z,18.91
2019-02-12T16:27:47.949Z,18.91
2019-02-12T16:30:22.219Z,18.90
2019-02-12T16:32:54.990Z,18.93
2019-02-12T16:35:27.283Z,18.92
2019-02-12T16:37:59.861Z,18.91
2019-02-12T16:40:31.916Z,18.90
2019-02-12T16:43:04.243Z,18.89
2019-02-12T16:45:39.128Z,18.89
2019-02-12T16:48:12.375Z,18.91
2019-02-12T16:50:46.349Z,18.94
2019-02-12T16:53:21.056Z,18.97
2019-02-12T16:55:55.547Z,18.98
2019-02-12T16:58:32.817Z,18.99
2019-02-12T17:01:05.635Z,19.00
2019-02-12T17:03:38.178Z,19.00
2019-02-12T17:06:11.383Z,18.99
2019-02-12T17:08:43.980Z,18.99
2019-02-12T17:11:17.246Z,19.00
2019-02-12T17:13:49.555Z,19.02
2019-02-12T17:16:21.875Z,19.04
2019-02-12T17:18:54.285Z,19.06
2019-02-12T17:21:26.482Z,19.07
2019-02-12T17:23:58.813Z,19.02
2019-02-12T17:26:31.122Z,19.03
2019-02-12T17:29:04.680Z,19.01
2019-02-12T17:31:36.761Z,19.00
2019-02-12T17:34:09.082Z,19.00
2019-02-12T17:36:41.556Z,18.99
2019-02-12T17:39:13.654Z,18.98
2019-02-12T17:41:45.919Z,18.97
2019-02-12T17:44:18.025Z,18.98
2019-02-12T17:46:50.431Z,18.99
2019-02-12T17:49:22.622Z,18.99
2019-02-12T17:51:56.310Z,18.98
2019-02-12T17:54:28.820Z,18.98
2019-02-12T17:57:01.298Z,18.99
2019-02-12T17:59:33.455Z,19.01
2019-02-12T18:02:05.694Z,19.03
2019-02-12T18:04:37.857Z,19.01
2019-02-12T18:07:10.288Z,19.07
2019-02-12T18:09:42.617Z,19.03
2019-02-12T18:12:14.985Z,19.01
2019-02-12T18:14:48.114Z,19.00
2019-02-12T18:17:20.407Z,19.02
2019-02-12T18:19:53.623Z,19.02
2019-02-12T18:22:26.428Z,19.00
2019-02-12T18:24:58.780Z,19.02
2019-02-12T18:27:30.939Z,19.00
2019-02-12T18:30:03.305Z,19.02
2019-02-12T18:32:35.633Z,19.02
2019-02-12T18:35:08.325Z,19.04
2019-02-12T18:37:40.530Z,19.05
2019-02-12T18:40:13.255Z,19.03
2019-02-12T18:42:45.390Z,19.14
2019-02-12T18:45:17.846Z,19.10
2019-02-12T18:47:49.949Z,19.08
2019-02-12T18:50:22.246Z,19.07
2019-02-12T18:52:55.033Z,19.06
2019-02-12T18:55:27.552Z,19.06
2019-02-12T18:57:59.865Z,19.04
2019-02-12T19:00:31.878Z,19.03
2019-02-12T19:03:04.050Z,19.01
2019-02-12T19:05:36.263Z,19.02
2019-02-12T19:08:08.390Z,19.03
2019-02-12T19:10:40.540Z,19.03
2019-02-12T19:13:13.740Z,19.07
2019-02-12T19:15:45.895Z,19.17
2019-02-12T19:18:19.408Z,19.24
2019-02-12T19:20:51.599Z,19.28
2019-02-12T19:23:23.840Z,19.28
2019-02-12T19:25:56.085Z,19.21
2019-02-12T19:28:28.176Z,19.19
2019-02-12T19:31:00.474Z,19.18
2019-02-12T19:33:32.657Z,19.18
2019-02-12T19:36:05.867Z,19.18
2019-02-12T19:38:38.178Z,19.18
2019-02-12T19:41:10.473Z,19.19
2019-02-12T19:43:42.872Z,19.17
2019-02-12T19:46:15.087Z,19.18
2019-02-12T19:48:47.605Z,19.18
2019-02-12T19:51:19.707Z,19.18
2019-02-12T19:53:52.038Z,19.21
2019-02-12T19:56:25.080Z,19.17
2019-02-12T19:58:57.224Z,19.17
2019-02-12T20:01:29.401Z,19.18
2019-02-12T20:04:01.539Z,19.20
2019-02-12T20:06:33.901Z,19.18
2019-02-12T20:09:08.068Z,19.19
2019-02-12T20:11:40.212Z,19.18
2019-02-12T20:14:12.339Z,19.11
2019-02-12T20:16:44.458Z,19.07
2019-02-12T20:19:16.584Z,19.07
2019-02-12T20:21:49.007Z,19.12
2019-02-12T20:24:21.160Z,19.07
2019-02-12T20:26:53.344Z,19.08
2019-02-12T20:29:26.970Z,19.10
2019-02-12T20:31:59.091Z,19.08
2019-02-12T20:34:31.195Z,19.07
2019-02-12T20:37:03.309Z,19.06
2019-02-12T20:39:35.379Z,19.06
2019-02-12T20:42:07.565Z,19.04
2019-02-12T20:44:39.708Z,19.08
2019-02-12T20:47:11.998Z,19.06
2019-02-12T20:49:45.121Z,19.05
2019-02-12T20:52:17.237Z,19.03
2019-02-12T20:54:49.460Z,19.04
2019-02-12T20:57:21.534Z,19.06
2019-02-12T20:59:54.649Z,19.05
2019-02-12T21:02:26.871Z,19.03
2019-02-12T21:04:59.096Z,19.05
2019-02-12T21:07:31.295Z,19.04
2019-02-12T21:10:03.476Z,19.04
2019-02-12T21:12:35.648Z,19.04
2019-02-12T21:15:11.228Z,19.03
2019-02-12T21:17:43.397Z,19.00
2019-02-12T21:20:15.707Z,19.03
2019-02-12T21:22:47.935Z,19.02
2019-02-12T21:25:20.214Z,19.02
2019-02-12T21:27:52.585Z,19.03
2019-02-12T21:30:24.768Z,19.03
2019-02-12T21:32:57.041Z,19.03
2019-02-12T21:35:29.189Z,19.01
2019-02-12T21:38:01.782Z,19.01
2019-02-12T21:40:33.962Z,18.99
2019-02-12T21:43:06.072Z,19.01
2019-02-12T21:45:39.845Z,19.00
2019-02-12T21:48:12.041Z,18.99
2019-02-12T21:50:44.263Z,18.97
2019-02-12T21:53:16.482Z,18.99
2019-02-12T21:55:48.559Z,18.98
2019-02-12T21:58:20.713Z,19.00
2019-02-12T22:00:53.092Z,18.98
2019-02-12T22:03:25.336Z,18.98
2019-02-12T22:05:57.444Z,18.97
2019-02-12T22:08:30.784Z,18.97
2019-02-12T22:11:03.007Z,18.97
2019-02-12T22:13:35.202Z,18.98
2019-02-12T22:16:07.355Z,19.00
2019-02-12T22:18:39.512Z,18.99
2019-02-12T22:21:11.625Z,18.98
2019-02-12T22:23:47.334Z,18.98
2019-02-12T22:26:19.579Z,18.98
2019-02-12T22:28:52.762Z,18.98
2019-02-12T22:31:24.776Z,18.94
2019-02-12T22:33:56.916Z,18.95
2019-02-12T22:36:29.127Z,18.94
2019-02-12T22:39:01.375Z,18.96
2019-02-12T22:41:34.829Z,18.94
2019-02-12T22:44:07.051Z,18.95
2019-02-12T22:46:39.311Z,18.96
2019-02-12T22:49:11.448Z,18.97
2019-02-12T22:51:43.653Z,18.94
2019-02-12T22:54:15.863Z,18.94
2019-02-12T22:56:47.927Z,18.94
2019-02-12T22:59:20.212Z,18.94
2019-02-12T23:01:52.269Z,18.94
2019-02-12T23:04:24.498Z,18.94
2019-02-12T23:06:56.612Z,18.91
2019-02-12T23:09:28.760Z,18.92
2019-02-12T23:12:03.176Z,18.91
2019-02-12T23:14:35.479Z,18.91
2019-02-12T23:17:07.643Z,18.91
2019-02-12T23:19:40.172Z,18.92
2019-02-12T23:22:13.463Z,18.90
2019-02-12T23:24:45.769Z,18.91
2019-02-12T23:27:17.804Z,18.90
2019-02-12T23:29:50.295Z,18.91
2019-02-12T23:32:22.429Z,18.92
2019-02-12T23:34:57.151Z,18.93
2019-02-12T23:37:28.554Z,18.90
2019-02-12T23:40:00.959Z,18.92
2019-02-12T23:42:33.279Z,18.93
2019-02-12T23:45:09.104Z,18.93
2019-02-12T23:47:41.344Z,18.92
2019-02-12T23:50:13.699Z,18.93
2019-02-12T23:52:46.123Z,18.91
2019-02-12T23:55:18.266Z,18.89
2019-02-12T23:57:50.523Z,18.88
